Time;durP1;ratioP1;P1;durP2;ratioP2;P2;SDS_P1;SDS_P2;PMS_P1;PMS_P2;Temp;Humidity;BMP_temperature;BMP_pressure;BME280_temperature;BME280_humidity;BME280_pressure;Samples;Min_cycle;Max_cycle;Signal;HPM_P1;HPM_P2
2022/04/08 00:00:45;;;;;;;10.07;2.80;;;;;;;4.47;89.10;99636.97;5026953;28;20097;-93
2022/04/08 00:03:10;;;;;;;10.57;2.55;;;;;;;4.41;88.79;99631.13;5014031;28;20014;-92
2022/04/08 00:05:35;;;;;;;12.32;3.30;;;;;;;4.39;88.38;99638.22;5037099;28;20133;-91
2022/04/08 00:08:00;;;;;;;8.07;2.15;;;;;;;4.42;88.10;99646.84;5018442;28;20527;-91
2022/04/08 00:10:26;;;;;;;11.05;2.95;;;;;;;4.39;88.57;99649.63;5011543;28;20469;-92
2022/04/08 00:12:51;;;;;;;10.95;2.80;;;;;;;4.32;88.67;99639.44;5031002;28;20055;-91
2022/04/08 00:15:16;;;;;;;13.98;2.63;;;;;;;4.45;89.07;99649.34;5033264;28;20052;-92
2022/04/08 00:17:41;;;;;;;10.65;2.33;;;;;;;4.54;89.15;99663.88;5018790;28;20120;-91
2022/04/08 00:20:07;;;;;;;13.30;2.70;;;;;;;4.55;88.59;99665.59;5018189;28;20717;-92
2022/04/08 00:22:39;;;;;;;10.55;2.67;;;;;;;4.61;88.49;99673.25;5034800;28;20021;-93
2022/04/08 00:25:05;;;;;;;11.15;3.10;;;;;;;4.64;88.34;99675.75;5036454;28;20030;-90
2022/04/08 00:27:30;;;;;;;9.50;2.60;;;;;;;4.64;88.14;99669.59;5025146;28;20112;-92
2022/04/08 00:29:55;;;;;;;11.95;2.92;;;;;;;4.62;87.78;99672.31;5035986;28;20124;-92
2022/04/08 00:32:21;;;;;;;12.90;2.80;;;;;;;4.71;87.89;99681.56;5031358;28;20033;-92
2022/04/08 00:34:46;;;;;;;9.43;2.92;;;;;;;4.73;86.83;99679.75;5035580;28;20040;-93
2022/04/08 00:37:11;;;;;;;10.30;2.33;;;;;;;4.73;86.54;99682.38;5034662;28;20116;-93
2022/04/08 00:39:37;;;;;;;13.18;2.80;;;;;;;4.68;86.18;99673.78;5020960;28;20506;-92
2022/04/08 00:42:02;;;;;;;10.05;2.55;;;;;;;4.65;85.89;99671.31;5016626;28;20009;-92
2022/04/08 00:44:29;;;;;;;7.78;2.17;;;;;;;4.53;86.25;99675.38;5037228;28;20040;-91
2022/04/08 00:46:54;;;;;;;10.60;2.47;;;;;;;4.49;86.08;99682.53;5021310;28;20036;-92
2022/04/08 00:49:19;;;;;;;9.98;2.38;;;;;;;4.43;86.33;99685.47;5034693;28;20128;-93
2022/04/08 00:51:45;;;;;;;11.38;3.10;;;;;;;4.40;86.09;99692.63;5018089;28;20091;-92
2022/04/08 00:54:11;;;;;;;11.85;2.65;;;;;;;4.39;86.59;99697.06;5033554;28;20010;-91
2022/04/08 00:56:37;;;;;;;14.65;3.05;;;;;;;4.38;86.66;99691.84;5034853;28;20116;-90
2022/04/08 00:59:02;;;;;;;9.90;2.20;;;;;;;4.47;86.63;99700.22;5027835;28;20040;-91
2022/04/08 01:01:28;;;;;;;14.77;2.50;;;;;;;4.51;86.61;99703.53;5013282;28;20032;-92
2022/04/08 01:03:53;;;;;;;14.73;2.53;;;;;;;4.43;86.68;99703.91;5036573;28;20346;-91
2022/04/08 01:06:20;;;;;;;17.10;2.95;;;;;;;4.43;86.79;99714.44;5018859;28;20386;-92
2022/04/08 01:08:47;;;;;;;14.35;3.38;;;;;;;4.35;86.64;99706.03;5018679;28;20038;-93
2022/04/08 01:11:12;;;;;;;10.43;2.72;;;;;;;4.33;86.91;99707.00;5029636;28;20029;-94
2022/04/08 01:13:38;;;;;;;9.13;3.22;;;;;;;4.31;86.92;99711.50;5009480;28;20037;-93
2022/04/08 01:16:09;;;;;;;15.05;2.90;;;;;;;4.24;86.85;99718.78;5026378;28;20033;-93
2022/04/08 01:18:35;;;;;;;17.02;3.58;;;;;;;4.17;86.87;99717.31;5025769;28;20052;-92
2022/04/08 01:21:05;;;;;;;12.98;3.25;;;;;;;4.13;86.72;99726.28;5030139;28;20021;-92
2022/04/08 01:23:36;;;;;;;10.48;3.03;;;;;;;4.19;87.18;99731.31;5036431;28;20068;-93
2022/04/08 01:26:08;;;;;;;11.90;2.70;;;;;;;4.19;87.24;99728.66;5031202;28;20117;-92
2022/04/08 01:28:33;;;;;;;14.65;2.78;;;;;;;4.24;86.67;99745.13;5018464;28;20041;-91
2022/04/08 01:30:59;;;;;;;13.57;2.80;;;;;;;4.30;86.70;99746.63;5027794;28;20037;-92
2022/04/08 01:33:24;;;;;;;13.52;3.17;;;;;;;4.28;85.71;99737.94;5034862;28;20018;-92
2022/04/08 01:35:49;;;;;;;14.43;3.13;;;;;;;4.27;85.99;99744.16;5036029;28;20069;-92
2022/04/08 01:38:14;;;;;;;14.02;3.25;;;;;;;4.21;86.06;99746.09;5037665;28;20490;-92
2022/04/08 01:40:40;;;;;;;14.02;2.72;;;;;;;4.17;86.00;99731.34;5036789;28;20029;-91
2022/04/08 01:43:05;;;;;;;14.48;3.78;;;;;;;4.16;86.06;99740.16;5038517;28;20029;-91
2022/04/08 01:45:30;;;;;;;14.27;3.92;;;;;;;4.09;86.41;99751.88;5017784;28;20129;-91
2022/04/08 01:47:56;;;;;;;14.73;2.95;;;;;;;4.02;86.42;99741.69;5037588;28;20033;-91
2022/04/08 01:50:22;;;;;;;12.63;2.80;;;;;;;3.94;86.80;99737.59;5036712;28;20456;-92
2022/04/08 01:52:48;;;;;;;13.75;2.83;;;;;;;3.92;87.35;99756.97;5008219;28;20406;-91
2022/04/08 01:55:14;;;;;;;21.05;4.00;;;;;;;3.94;87.95;99745.50;5036122;28;20051;-93
2022/04/08 01:57:41;;;;;;;14.73;3.08;;;;;;;3.97;87.92;99749.75;5026208;28;20040;-92
2022/04/08 02:00:08;;;;;;;9.57;2.75;;;;;;;3.96;88.04;99753.31;5022241;28;20025;-92
2022/04/08 02:02:34;;;;;;;13.43;3.20;;;;;;;3.99;88.19;99751.41;5025183;28;20065;-92
2022/04/08 02:04:59;;;;;;;21.02;3.65;;;;;;;3.93;88.46;99758.69;5027650;28;20076;-92
2022/04/08 02:07:26;;;;;;;13.57;3.10;;;;;;;3.88;88.63;99758.88;5029125;28;20162;-91
2022/04/08 02:09:51;;;;;;;12.48;3.17;;;;;;;3.82;88.87;99769.69;5036094;28;20029;-91
2022/04/08 02:12:17;;;;;;;11.20;2.97;;;;;;;3.77;89.07;99762.91;5029582;28;20021;-91
2022/04/08 02:14:42;;;;;;;12.25;3.47;;;;;;;3.68;89.42;99766.75;5033743;28;20437;-91
2022/04/08 02:17:07;;;;;;;11.27;2.72;;;;;;;3.67;89.79;99772.91;5032416;28;20037;-91
2022/04/08 02:19:32;;;;;;;15.07;2.70;;;;;;;3.63;90.16;99780.06;5017378;28;20033;-91
2022/04/08 02:21:58;;;;;;;11.73;2.70;;;;;;;3.58;90.13;99779.41;5022545;28;20025;-90
2022/04/08 02:24:25;;;;;;;12.30;3.42;;;;;;;3.49;90.71;99767.47;5035826;28;20049;-91
2022/04/08 02:26:50;;;;;;;11.48;3.13;;;;;;;3.52;90.69;99777.00;5032673;28;20029;-93
2022/04/08 02:29:15;;;;;;;13.75;3.20;;;;;;;3.52;91.14;99786.69;5032716;28;20050;-91
2022/04/08 02:31:40;;;;;;;13.13;3.05;;;;;;;3.47;91.20;99781.59;5027685;28;20033;-91
2022/04/08 02:34:06;;;;;;;14.50;3.05;;;;;;;3.43;91.30;99785.28;5034700;28;20021;-91
2022/04/08 02:36:31;;;;;;;16.38;3.80;;;;;;;3.41;91.55;99793.19;5030132;28;20387;-91
2022/04/08 02:38:56;;;;;;;15.00;3.13;;;;;;;3.36;91.68;99786.41;5032232;28;20034;-91
2022/04/08 02:41:22;;;;;;;10.02;2.72;;;;;;;3.35;92.02;99793.44;5032275;28;20049;-92
2022/04/08 02:43:48;;;;;;;7.97;2.72;;;;;;;3.36;92.20;99797.78;5019863;28;20034;-92
2022/04/08 02:46:13;;;;;;;9.88;2.90;;;;;;;3.27;92.09;99789.41;5031309;28;20069;-91
2022/04/08 02:48:38;;;;;;;9.52;2.88;;;;;;;3.33;92.50;99795.25;5026666;28;20034;-92
2022/04/08 02:51:04;;;;;;;16.55;3.28;;;;;;;3.33;92.33;99787.38;5025767;28;20034;-91
2022/04/08 02:53:29;;;;;;;14.27;3.30;;;;;;;3.37;92.12;99793.38;5031003;28;20175;-92
2022/04/08 02:55:54;;;;;;;10.50;3.17;;;;;;;3.35;91.89;99800.47;5032586;28;20037;-92
2022/04/08 02:58:20;;;;;;;11.90;3.22;;;;;;;3.32;92.41;99804.06;5024079;28;20045;-92
2022/04/08 03:00:45;;;;;;;11.98;2.60;;;;;;;3.31;92.42;99806.78;5030829;28;20025;-92
2022/04/08 03:03:10;;;;;;;12.70;3.08;;;;;;;3.25;92.43;99795.53;5007941;28;20045;-90
2022/04/08 03:05:35;;;;;;;14.13;3.83;;;;;;;3.21;92.63;99793.09;5025508;28;20196;-92
2022/04/08 03:08:01;;;;;;;12.57;3.58;;;;;;;3.19;93.10;99787.03;5041552;28;20045;-91
2022/04/08 03:10:26;;;;;;;14.68;3.65;;;;;;;3.17;93.22;99794.97;5041267;28;20478;-91
2022/04/08 03:12:51;;;;;;;14.35;3.30;;;;;;;3.16;93.34;99803.78;5029035;28;20501;-91
2022/04/08 03:15:16;;;;;;;10.48;2.83;;;;;;;3.13;93.27;99806.53;5027050;28;20024;-90
2022/04/08 03:17:42;;;;;;;11.43;2.97;;;;;;;3.11;93.65;99804.88;5030550;28;20085;-91
2022/04/08 03:20:07;;;;;;;9.65;3.13;;;;;;;3.07;93.72;99803.28;5027674;28;20029;-92
2022/04/08 03:22:33;;;;;;;12.23;3.72;;;;;;;2.93;93.80;99782.75;5026282;28;20061;-92
2022/04/08 03:24:58;;;;;;;19.92;4.22;;;;;;;2.98;93.95;99805.31;5024801;28;20061;-92
2022/04/08 03:27:24;;;;;;;11.02;3.40;;;;;;;2.95;94.35;99805.44;5036511;28;20034;-92
2022/04/08 03:29:49;;;;;;;13.13;3.75;;;;;;;2.94;94.60;99816.00;5034490;28;20022;-91
2022/04/08 03:32:15;;;;;;;8.27;3.42;;;;;;;2.93;94.79;99819.56;5029307;28;20037;-92
2022/04/08 03:34:40;;;;;;;8.30;3.67;;;;;;;2.87;94.97;99815.34;5034892;28;20013;-91
2022/04/08 03:37:06;;;;;;;8.93;4.32;;;;;;;2.82;95.00;99819.06;5023616;28;20022;-92
2022/04/08 03:39:32;;;;;;;11.13;4.20;;;;;;;2.82;95.29;99819.06;5032236;28;20522;-91
2022/04/08 03:41:57;;;;;;;9.23;3.75;;;;;;;2.83;95.14;99823.41;5036486;28;20386;-91
2022/04/08 03:44:23;;;;;;;11.38;3.92;;;;;;;2.83;95.31;99821.63;5015675;28;20046;-92
2022/04/08 03:46:49;;;;;;;10.43;4.00;;;;;;;2.82;95.47;99819.94;5032120;28;20132;-91
2022/04/08 03:49:15;;;;;;;9.55;4.10;;;;;;;2.79;95.16;99819.16;5037355;28;20005;-91
2022/04/08 03:51:41;;;;;;;11.85;4.07;;;;;;;2.79;95.32;99825.28;5036652;28;20052;-93
2022/04/08 03:54:08;;;;;;;12.13;4.75;;;;;;;2.70;95.07;99815.09;5026030;28;20049;-93
2022/04/08 03:56:34;;;;;;;12.00;4.07;;;;;;;2.73;95.15;99834.25;5032978;28;20470;-91
2022/04/08 03:58:59;;;;;;;10.40;4.30;;;;;;;2.68;95.26;99828.31;5015498;28;20041;-91
2022/04/08 04:01:24;;;;;;;10.65;4.07;;;;;;;2.68;95.14;99845.84;5037080;28;20040;-91
2022/04/08 04:03:50;;;;;;;9.80;4.43;;;;;;;2.58;95.42;99828.66;5033519;28;20042;-90
2022/04/08 04:06:15;;;;;;;10.15;4.47;;;;;;;2.58;95.69;99828.66;5031429;28;20022;-91
2022/04/08 04:08:40;;;;;;;13.02;4.38;;;;;;;2.63;96.21;99838.09;5014196;28;20101;-91
2022/04/08 04:11:05;;;;;;;13.43;5.55;;;;;;;2.63;95.84;99837.22;5021465;28;20029;-91
2022/04/08 04:13:31;;;;;;;9.43;4.65;;;;;;;2.50;95.83;99815.78;5032515;28;20091;-92
2022/04/08 04:15:56;;;;;;;8.75;4.88;;;;;;;2.53;96.29;99820.09;5037303;28;20552;-91
2022/04/08 04:18:22;;;;;;;10.65;5.35;;;;;;;2.52;96.28;99823.63;5019406;28;20029;-91
2022/04/08 04:20:47;;;;;;;14.07;5.60;;;;;;;2.57;96.31;99826.94;5028355;28;20025;-93
2022/04/08 04:23:12;;;;;;;15.18;5.80;;;;;;;2.56;96.40;99823.47;5031815;28;20047;-92
2022/04/08 04:25:37;;;;;;;18.92;6.55;;;;;;;2.56;96.82;99820.00;5036880;28;20046;-92
2022/04/08 04:28:04;;;;;;;11.40;6.15;;;;;;;2.61;97.08;99815.44;5016740;28;20029;-92
2022/04/08 04:30:30;;;;;;;14.73;6.88;;;;;;;2.72;96.96;99815.91;5033335;28;20541;-91
2022/04/08 04:32:56;;;;;;;19.00;7.32;;;;;;;2.71;96.63;99822.06;5019353;28;20068;-91
2022/04/08 04:35:22;;;;;;;13.98;6.85;;;;;;;2.66;96.60;99829.25;5036755;28;20394;-92
2022/04/08 04:37:47;;;;;;;16.85;7.28;;;;;;;2.60;96.89;99819.81;5036940;28;20033;-91
2022/04/08 04:40:13;;;;;;;14.63;7.55;;;;;;;2.61;96.95;99833.81;5025411;28;20026;-92
2022/04/08 04:42:38;;;;;;;18.35;8.93;;;;;;;2.56;97.17;99825.25;5026359;28;20033;-91
2022/04/08 04:45:04;;;;;;;20.98;8.75;;;;;;;2.59;97.17;99836.50;5034493;28;20390;-92
2022/04/08 04:47:29;;;;;;;19.70;9.00;;;;;;;2.48;96.91;99815.84;5016096;28;20117;-91
2022/04/08 04:49:54;;;;;;;19.67;8.88;;;;;;;2.50;97.15;99826.28;5030075;28;20057;-92
2022/04/08 04:52:19;;;;;;;18.10;9.30;;;;;;;2.53;97.30;99836.69;5029916;28;20443;-91
2022/04/08 04:54:45;;;;;;;15.73;9.45;;;;;;;2.50;97.50;99835.03;5037766;28;20017;-92
2022/04/08 04:57:10;;;;;;;20.00;10.30;;;;;;;2.53;97.63;99841.09;5036968;28;20017;-92
2022/04/08 04:59:35;;;;;;;21.85;10.65;;;;;;;2.48;97.93;99831.59;5049011;28;20037;-92
2022/04/08 05:02:01;;;;;;;20.15;11.52;;;;;;;2.47;97.96;99836.91;5020037;28;20080;-92
2022/04/08 05:04:26;;;;;;;20.17;10.90;;;;;;;2.43;98.53;99830.06;5033696;28;20057;-93
2022/04/08 05:06:51;;;;;;;20.15;11.13;;;;;;;2.42;98.54;99830.94;5037009;28;20140;-92
2022/04/08 05:09:16;;;;;;;15.75;10.32;;;;;;;2.43;98.43;99825.66;5032453;28;20380;-92
2022/04/08 05:11:42;;;;;;;19.90;10.55;;;;;;;2.45;98.47;99826.44;5033921;28;20017;-92
2022/04/08 05:14:08;;;;;;;19.00;10.80;;;;;;;2.47;98.38;99832.53;5018436;28;20033;-92
2022/04/08 05:16:33;;;;;;;19.90;11.93;;;;;;;2.43;98.62;99830.91;5033326;28;20048;-91
2022/04/08 05:18:58;;;;;;;23.67;13.35;;;;;;;2.40;98.69;99817.88;5034268;28;20036;-91
2022/04/08 05:21:24;;;;;;;18.02;11.43;;;;;;;2.46;98.22;99827.31;5028563;28;20367;-93
2022/04/08 05:23:49;;;;;;;19.88;11.63;;;;;;;2.46;98.83;99827.31;5032205;28;20108;-93
2022/04/08 05:26:15;;;;;;;19.50;11.88;;;;;;;2.43;99.10;99822.19;5031603;28;20541;-92
2022/04/08 05:28:40;;;;;;;19.70;11.70;;;;;;;2.49;98.99;99830.69;5035259;28;20040;-93
2022/04/08 05:31:06;;;;;;;21.65;12.27;;;;;;;2.53;98.98;99830.59;5016194;28;20021;-92
2022/04/08 05:33:31;;;;;;;21.85;12.07;;;;;;;2.55;99.02;99828.75;5034741;28;20045;-91
2022/04/08 05:35:56;;;;;;;16.50;11.30;;;;;;;2.57;98.97;99819.94;5030493;28;20030;-92
2022/04/08 05:38:22;;;;;;;19.25;10.65;;;;;;;2.65;98.90;99830.19;5035345;28;20048;-92
2022/04/08 05:40:49;;;;;;;18.50;11.45;;;;;;;2.68;98.97;99816.94;5031413;28;20087;-91
2022/04/08 05:43:15;;;;;;;18.40;11.45;;;;;;;2.69;98.67;99811.63;5035456;28;20028;-91
2022/04/08 05:45:40;;;;;;;15.23;10.65;;;;;;;2.75;98.21;99813.16;5037448;28;20037;-92
2022/04/08 05:48:07;;;;;;;17.25;9.82;;;;;;;2.82;98.08;99822.56;5031351;28;20022;-92
2022/04/08 05:50:32;;;;;;;19.90;11.55;;;;;;;2.84;98.07;99817.22;5028457;28;20061;-93
2022/04/08 05:52:57;;;;;;;17.17;11.25;;;;;;;2.90;97.86;99817.03;5034266;28;20033;-90
2022/04/08 05:55:23;;;;;;;16.48;11.07;;;;;;;2.93;97.69;99809.91;5030697;28;20044;-91
2022/04/08 05:57:48;;;;;;;20.70;10.73;;;;;;;2.92;97.57;99802.06;5035796;28;20538;-95
2022/04/08 06:00:15;;;;;;;16.33;10.43;;;;;;;2.91;97.49;99805.59;5027115;28;20059;-87
2022/04/08 06:02:45;;;;;;;17.48;10.15;;;;;;;2.94;97.45;99806.34;5027796;28;20103;-86
2022/04/08 06:05:11;;;;;;;15.05;10.35;;;;;;;2.98;97.22;99802.69;5029452;28;20447;-86
2022/04/08 06:07:47;;;;;;;15.25;9.70;;;;;;;3.06;96.71;99805.06;5026551;28;20043;-85
2022/04/08 06:10:13;;;;;;;15.40;8.85;;;;;;;3.22;96.20;99811.47;5021062;28;20104;-85
2022/04/08 06:12:39;;;;;;;14.80;9.60;;;;;;;3.36;95.63;99808.31;5027878;28;20107;-84
2022/04/08 06:15:05;;;;;;;12.85;8.73;;;;;;;3.52;95.41;99805.09;5031063;28;20077;-82
2022/04/08 06:17:37;;;;;;;15.55;8.70;;;;;;;3.63;94.39;99798.47;5005981;28;20025;-84
2022/04/08 06:20:11;;;;;;;12.68;8.40;;;;;;;3.82;94.02;99796.00;5019486;28;20037;-85
2022/04/08 06:22:40;;;;;;;;;;;;;;;4.00;94.08;99803.16;5018106;28;20450;-83
2022/04/08 06:25:08;;;;;;;12.68;8.27;;;;;;;4.11;92.05;99801.88;5020702;28;19925;-83
2022/04/08 06:27:33;;;;;;;13.63;7.47;;;;;;;4.22;90.68;99810.16;5018279;28;20017;-84
2022/04/08 06:29:58;;;;;;;9.32;7.38;;;;;;;4.24;90.29;99805.69;5019778;28;20119;-83
2022/04/08 06:32:24;;;;;;;11.98;7.63;;;;;;;4.25;90.56;99799.50;5016605;28;20365;-82
2022/04/08 06:34:49;;;;;;;13.98;7.57;;;;;;;4.39;89.70;99802.44;5018987;28;20398;-82
2022/04/08 06:37:15;;;;;;;10.77;7.63;;;;;;;4.58;88.88;99809.56;5022096;28;20029;-81
2022/04/08 06:39:40;;;;;;;12.13;6.90;;;;;;;4.78;88.37;99804.28;5020761;28;20025;-82
2022/04/08 06:42:05;;;;;;;20.10;7.25;;;;;;;4.95;86.82;99809.66;5021916;28;20164;-82
2022/04/08 06:44:31;;;;;;;13.48;7.38;;;;;;;5.11;87.09;99809.00;5022088;28;20040;-82
2022/04/08 06:46:57;;;;;;;13.05;7.20;;;;;;;5.28;86.26;99792.41;5001362;28;20076;-83
2022/04/08 06:49:22;;;;;;;10.77;6.68;;;;;;;5.47;85.42;99790.59;5018623;28;20052;-82
2022/04/08 06:51:47;;;;;;;11.63;6.85;;;;;;;5.75;84.63;99792.81;5017079;28;20030;-83
2022/04/08 06:54:13;;;;;;;12.70;6.70;;;;;;;5.76;83.02;99781.31;5019655;28;20917;-83
2022/04/08 06:56:38;;;;;;;10.50;6.85;;;;;;;5.73;82.57;99792.91;5017636;28;20025;-83
2022/04/08 06:59:04;;;;;;;9.63;6.32;;;;;;;5.59;82.24;99773.34;5024831;28;20049;-83
2022/04/08 07:01:30;;;;;;;9.63;6.65;;;;;;;5.64;81.73;99790.69;5018516;28;20478;-83
2022/04/08 07:03:56;;;;;;;11.05;7.57;;;;;;;5.61;82.41;99789.97;5020078;28;20049;-83
2022/04/08 07:06:21;;;;;;;12.05;7.45;;;;;;;5.62;82.09;99775.84;5021273;28;20037;-82
2022/04/08 07:08:46;;;;;;;14.15;8.18;;;;;;;5.60;81.67;99782.97;5020710;28;20036;-83
2022/04/08 07:11:12;;;;;;;15.32;7.90;;;;;;;5.59;82.84;99787.38;5021619;28;20032;-84
2022/04/08 07:13:39;;;;;;;9.13;6.88;;;;;;;5.60;82.58;99790.88;5017540;28;20025;-82
2022/04/08 07:16:04;;;;;;;10.60;7.05;;;;;;;5.63;82.77;99786.31;5025700;28;20346;-83
2022/04/08 07:18:30;;;;;;;11.50;7.32;;;;;;;5.74;81.84;99786.66;5009353;28;20516;-83
2022/04/08 07:20:55;;;;;;;9.48;6.57;;;;;;;5.74;81.32;99781.41;5021314;28;20895;-83
2022/04/08 07:23:20;;;;;;;11.85;7.20;;;;;;;5.82;81.50;99785.47;5020806;28;20033;-84
2022/04/08 07:25:46;;;;;;;12.52;7.22;;;;;;;5.88;80.67;99780.72;5004990;28;20093;-84
2022/04/08 07:28:11;;;;;;;15.30;7.03;;;;;;;5.95;80.77;99778.69;5018032;28;20039;-85
2022/04/08 07:30:36;;;;;;;13.73;7.03;;;;;;;6.03;79.50;99786.25;5013344;28;20029;-83
2022/04/08 07:33:03;;;;;;;11.65;5.72;;;;;;;5.99;78.73;99773.16;5020608;28;20061;-84
2022/04/08 07:35:30;;;;;;;9.95;5.70;;;;;;;5.96;79.59;99777.75;5025397;28;20026;-93
2022/04/08 07:37:56;;;;;;;10.07;5.75;;;;;;;6.00;79.07;99776.66;5027717;28;20034;-93
2022/04/08 07:40:22;;;;;;;9.38;6.43;;;;;;;6.03;78.73;99778.31;5025521;28;20026;-90
2022/04/08 07:42:48;;;;;;;11.23;6.10;;;;;;;6.19;78.89;99776.63;5026725;28;20193;-95
2022/04/08 07:45:14;;;;;;;9.82;5.97;;;;;;;6.19;78.58;99758.97;5010544;28;20036;-94
2022/04/08 07:47:39;;;;;;;10.45;5.35;;;;;;;6.27;77.05;99763.00;5006184;28;20482;-95
2022/04/08 07:50:11;;;;;;;9.90;5.53;;;;;;;6.23;77.96;99765.81;5030813;28;20034;-93
2022/04/08 07:52:38;;;;;;;10.35;6.28;;;;;;;6.36;78.18;99762.56;5032506;28;20045;-94
2022/04/08 07:55:04;;;;;;;8.85;5.93;;;;;;;6.33;77.55;99755.63;5035748;28;20045;-95
2022/04/08 07:57:29;;;;;;;9.85;6.40;;;;;;;6.39;77.38;99757.94;5033361;28;20036;-93
2022/04/08 07:59:54;;;;;;;8.38;5.80;;;;;;;6.35;77.07;99763.47;5033295;28;20053;-93
2022/04/08 08:02:20;;;;;;;9.05;5.18;;;;;;;6.32;77.63;99758.38;5026292;28;20021;-91
2022/04/08 08:04:45;;;;;;;9.60;6.03;;;;;;;6.29;77.38;99762.00;5036752;28;20056;-93
2022/04/08 08:07:10;;;;;;;12.07;6.00;;;;;;;6.23;77.28;99757.91;5024571;28;20095;-93
2022/04/08 08:09:36;;;;;;;8.95;6.22;;;;;;;6.28;77.31;99756.81;5035726;28;20088;-94
2022/04/08 08:12:03;;;;;;;10.98;6.20;;;;;;;6.30;76.65;99755.78;5036646;28;20116;-92
2022/04/08 08:14:29;;;;;;;11.88;7.00;;;;;;;6.32;76.80;99761.00;5017399;28;20033;-93
2022/04/08 08:16:54;;;;;;;9.95;6.25;;;;;;;6.35;77.50;99759.03;5029470;28;20451;-92
2022/04/08 08:19:20;;;;;;;11.63;5.95;;;;;;;6.37;76.46;99754.53;5030614;28;20052;-91
2022/04/08 08:21:45;;;;;;;8.57;6.00;;;;;;;6.46;76.28;99763.78;5020489;28;20021;-92
2022/04/08 08:24:10;;;;;;;6.97;5.53;;;;;;;6.49;75.45;99753.91;5028520;28;20083;-91
2022/04/08 08:26:35;;;;;;;11.43;5.80;;;;;;;6.48;76.28;99754.00;5035772;28;20041;-91
2022/04/08 08:29:02;;;;;;;9.82;5.80;;;;;;;6.41;74.74;99750.81;5035609;28;20095;-91
2022/04/08 08:31:27;;;;;;;9.95;5.95;;;;;;;6.44;75.89;99745.38;5017358;28;20490;-94
2022/04/08 08:33:53;;;;;;;9.90;6.65;;;;;;;6.60;75.95;99741.91;5017731;28;20069;-94
2022/04/08 08:36:18;;;;;;;11.70;5.82;;;;;;;6.78;75.13;99745.41;5031608;28;20021;-91
2022/04/08 08:38:43;;;;;;;10.15;5.50;;;;;;;6.82;74.39;99734.59;5050911;28;20029;-92
2022/04/08 08:41:10;;;;;;;7.53;5.20;;;;;;;6.91;73.32;99730.59;5039005;28;20029;-94
2022/04/08 08:43:36;;;;;;;8.80;5.32;;;;;;;6.97;72.90;99714.38;5033613;28;20098;-92
2022/04/08 08:46:03;;;;;;;9.27;5.72;;;;;;;7.17;72.33;99721.25;5029195;28;20482;-93
2022/04/08 08:48:33;;;;;;;12.25;6.32;;;;;;;7.25;72.16;99721.69;5014962;28;20033;-92
2022/04/08 08:51:02;;;;;;;9.65;5.22;;;;;;;7.33;69.87;99708.88;5032366;28;20034;-93
2022/04/08 08:53:30;;;;;;;10.43;5.60;;;;;;;7.42;70.14;99715.47;5033135;28;20087;-92
2022/04/08 08:55:55;;;;;;;9.23;5.05;;;;;;;7.49;68.04;99704.44;5011175;28;20034;-91
2022/04/08 08:58:21;;;;;;;7.45;4.82;;;;;;;7.56;67.82;99698.78;5017275;28;20029;-90
2022/04/08 09:00:47;;;;;;;11.90;5.00;;;;;;;7.67;67.35;99701.69;5017744;28;20487;-91
2022/04/08 09:03:13;;;;;;;9.68;5.00;;;;;;;7.73;65.88;99690.72;5034222;28;20103;-89
2022/04/08 09:05:52;;;;;;;5.95;5.00;;;;;;;7.86;67.12;99698.81;5016692;28;20558;-91
2022/04/08 09:08:17;;;;;;;9.40;4.97;;;;;;;7.87;64.32;99692.59;5026140;28;20029;-91
2022/04/08 09:10:45;;;;;;;9.50;4.25;;;;;;;7.96;65.23;99687.59;5024803;28;20498;-91
2022/04/08 09:13:11;;;;;;;7.45;4.25;;;;;;;7.99;64.19;99683.94;5021047;28;20026;-93
2022/04/08 09:15:39;;;;;;;5.03;4.28;;;;;;;8.08;64.21;99696.66;5014830;28;20104;-91
2022/04/08 09:18:12;;;;;;;7.45;4.38;;;;;;;8.16;64.76;99691.75;5032712;28;20025;-92
2022/04/08 09:20:42;;;;;;;9.07;4.40;;;;;;;8.17;65.02;99693.44;5034975;28;20037;-92
2022/04/08 09:23:08;;;;;;;8.65;3.95;;;;;;;8.21;63.83;99694.13;5034467;28;20017;-88
2022/04/08 09:25:35;;;;;;;7.78;3.88;;;;;;;8.24;62.40;99689.50;5026602;28;20115;-92
2022/04/08 09:28:09;;;;;;;7.78;3.83;;;;;;;8.17;62.69;99697.91;5026921;28;20026;-91
2022/04/08 09:30:35;;;;;;;6.38;3.45;;;;;;;8.12;61.64;99681.41;5008624;28;20167;-90
2022/04/08 09:33:16;;;;;;;8.30;3.67;;;;;;;8.19;63.19;99693.34;5030040;28;20443;-91
2022/04/08 09:35:42;;;;;;;5.07;3.67;;;;;;;8.10;61.89;99699.19;5029195;28;20041;-91
2022/04/08 09:38:08;;;;;;;6.07;4.00;;;;;;;8.00;61.02;99688.28;5016530;28;20032;-93
2022/04/08 09:40:38;;;;;;;6.60;3.55;;;;;;;8.08;62.48;99687.84;5013940;28;20030;-91
2022/04/08 09:43:04;;;;;;;7.45;4.20;;;;;;;8.20;61.46;99687.13;5026095;28;20025;-91
2022/04/08 09:45:32;;;;;;;9.63;4.28;;;;;;;8.21;61.70;99684.38;5017946;28;20030;-91
2022/04/08 09:48:02;;;;;;;8.40;3.55;;;;;;;8.24;61.28;99683.34;5019067;28;20381;-91
2022/04/08 09:50:27;;;;;;;8.60;3.75;;;;;;;8.33;62.22;99679.28;5023053;28;20040;-91
2022/04/08 09:52:54;;;;;;;9.77;3.40;;;;;;;8.40;60.73;99691.25;5034586;28;20030;-91
2022/04/08 09:55:21;;;;;;;5.78;3.35;;;;;;;8.26;59.53;99689.38;5016065;28;20026;-93
2022/04/08 09:57:49;;;;;;;8.98;3.78;;;;;;;8.16;60.18;99694.41;5016326;28;20021;-92
2022/04/08 10:00:16;;;;;;;13.02;3.75;;;;;;;8.19;61.40;99688.03;5032765;28;20030;-92
2022/04/08 10:02:44;;;;;;;9.05;3.53;;;;;;;8.22;61.17;99693.16;5016346;28;20037;-92
2022/04/08 10:05:11;;;;;;;8.90;3.90;;;;;;;8.12;60.28;99697.31;5021525;28;20073;-92
2022/04/08 10:07:38;;;;;;;7.28;3.67;;;;;;;8.09;61.12;99692.19;5029667;28;20025;-91
2022/04/08 10:10:21;;;;;;;8.82;3.75;;;;;;;8.26;61.41;99681.44;5033740;28;20022;-92
2022/04/08 10:13:04;;;;;;;5.85;3.70;;;;;;;8.42;60.34;99682.25;5033702;28;20034;-92
2022/04/08 10:15:40;;;;;;;9.48;4.15;;;;;;;8.51;60.00;99685.31;5032880;28;20118;-91
2022/04/08 10:18:05;;;;;;;7.93;3.72;;;;;;;8.65;59.94;99688.84;5020231;28;20091;-92
2022/04/08 10:20:33;;;;;;;7.72;3.80;;;;;;;8.71;61.04;99691.09;5030759;28;20025;-91
2022/04/08 10:23:11;;;;;;;8.30;3.80;;;;;;;8.71;60.65;99684.94;5011181;28;20143;-92
2022/04/08 10:25:40;;;;;;;7.15;3.58;;;;;;;8.61;60.09;99678.47;5035429;28;20022;-92
2022/04/08 10:28:06;;;;;;;5.38;2.90;;;;;;;8.73;59.21;99678.56;5035276;28;20072;-91
2022/04/08 10:30:43;;;;;;;9.90;3.20;;;;;;;8.71;60.48;99675.19;5024753;28;20033;-92
2022/04/08 10:33:09;;;;;;;5.28;2.90;;;;;;;8.73;58.15;99672.41;5013422;28;20017;-93
2022/04/08 10:35:37;;;;;;;9.45;3.42;;;;;;;8.70;59.85;99672.63;5030975;28;20372;-92
2022/04/08 10:38:04;;;;;;;8.32;3.15;;;;;;;8.72;59.22;99663.59;5001323;28;20479;-92
2022/04/08 10:40:32;;;;;;;7.28;3.30;;;;;;;8.70;59.05;99665.53;5035466;28;20044;-92
2022/04/08 10:43:00;;;;;;;6.80;3.00;;;;;;;8.69;59.26;99668.25;5034793;28;20042;-92
2022/04/08 10:45:26;;;;;;;9.70;2.90;;;;;;;8.72;57.93;99668.06;5034665;28;20030;-92
2022/04/08 10:47:51;;;;;;;7.30;2.70;;;;;;;8.70;57.63;99662.03;5032432;28;20025;-92
2022/04/08 10:50:25;;;;;;;5.45;2.63;;;;;;;8.66;59.19;99661.34;5023022;28;20108;-93
2022/04/08 10:53:03;;;;;;;7.30;2.90;;;;;;;8.75;57.98;99659.94;5020141;28;20030;-92
2022/04/08 10:55:29;;;;;;;7.07;2.83;;;;;;;8.91;56.78;99665.97;5014683;28;20022;-93
2022/04/08 10:57:57;;;;;;;6.70;2.80;;;;;;;9.12;56.91;99663.78;5022136;28;20589;-93
2022/04/08 11:00:25;;;;;;;6.55;2.70;;;;;;;9.16;55.90;99653.81;5032626;28;20035;-93
2022/04/08 11:02:53;;;;;;;7.18;2.35;;;;;;;9.12;55.67;99654.97;5025230;28;20091;-93
2022/04/08 11:05:19;;;;;;;7.22;3.05;;;;;;;9.00;55.30;99651.28;5020100;28;20505;-93
2022/04/08 11:07:46;;;;;;;6.75;3.25;;;;;;;9.04;56.61;99644.84;5030002;28;20034;-93
2022/04/08 11:10:16;;;;;;;7.28;2.85;;;;;;;9.17;57.76;99635.13;5020201;28;20005;-92
2022/04/08 11:12:47;;;;;;;7.28;3.13;;;;;;;9.16;55.84;99643.19;5025254;28;20084;-90
2022/04/08 11:15:23;;;;;;;8.50;4.07;;;;;;;8.94;54.85;99639.22;5032016;28;20028;-91
2022/04/08 11:17:50;;;;;;;7.45;3.03;;;;;;;8.84;56.61;99642.56;5013757;28;20041;-91
2022/04/08 11:20:17;;;;;;;7.38;2.75;;;;;;;8.66;55.85;99637.47;5026536;28;20022;-91
2022/04/08 11:22:50;;;;;;;6.75;2.38;;;;;;;8.58;57.36;99625.63;5008670;28;20111;-91
2022/04/08 11:25:27;;;;;;;5.13;2.35;;;;;;;8.60;57.36;99632.53;5023274;28;20030;-91
2022/04/08 11:28:07;;;;;;;6.22;2.40;;;;;;;8.65;57.80;99626.94;5022652;28;20398;-92
2022/04/08 11:30:38;;;;;;;6.53;2.63;;;;;;;8.60;57.54;99624.59;5005873;28;20038;-91
2022/04/08 11:33:17;;;;;;;7.57;2.47;;;;;;;8.52;57.16;99620.69;5015530;28;20038;-92